Time;durP1;ratioP1;P1;durP2;ratioP2;P2;SDS_P1;SDS_P2;PMS_P1;PMS_P2;Temp;Humidity;BMP_temperature;BMP_pressure;BME280_temperature;BME280_humidity;BME280_pressure;Samples;Min_cycle;Max_cycle;Signal;HPM_P1;HPM_P2
2021/12/28 00:01:24;;;;;;;11.88;2.78;;;11.30;59.40;;;;;;5168354;27;34231;-77
2021/12/28 00:03:52;;;;;;;19.00;3.13;;;11.30;59.20;;;;;;5167584;27;35998;-77
2021/12/28 00:06:18;;;;;;;10.98;1.88;;;11.30;59.40;;;;;;5168949;27;34209;-77
2021/12/28 00:08:45;;;;;;;12.20;2.88;;;11.30;59.40;;;;;;5151131;27;34283;-76
2021/12/28 00:11:12;;;;;;;15.90;2.63;;;11.30;59.20;;;;;;5151349;27;34516;-76
2021/12/28 00:13:40;;;;;;;10.10;2.45;;;11.30;59.20;;;;;;5186693;27;34828;-77
2021/12/28 00:18:50;;;;;;;16.60;2.22;;;11.30;59.00;;;;;;5186378;27;34325;-76
2021/12/28 00:21:16;;;;;;;12.50;2.60;;;11.30;59.00;;;;;;5169060;27;34528;-77
2021/12/28 00:23:43;;;;;;;12.15;2.33;;;11.30;58.90;;;;;;5186282;27;35004;-76
2021/12/28 00:26:13;;;;;;;12.93;2.60;;;11.30;58.90;;;;;;5168016;27;34209;-76
2021/12/28 00:28:41;;;;;;;15.75;2.78;;;11.30;58.90;;;;;;5168354;27;34417;-76
2021/12/28 00:31:07;;;;;;;12.93;2.03;;;11.30;58.80;;;;;;5151827;27;34103;-77
2021/12/28 00:33:34;;;;;;;15.85;2.45;;;11.30;58.50;;;;;;5169043;27;35690;-76
2021/12/28 00:36:01;;;;;;;11.18;2.40;;;11.30;58.70;;;;;;5168439;27;34111;-76
2021/12/28 00:38:28;;;;;;;13.73;2.42;;;11.30;58.70;;;;;;5154161;27;34488;-77
2021/12/28 00:40:57;;;;;;;15.32;2.85;;;11.30;58.80;;;;;;5190789;27;34333;-77
2021/12/28 00:43:24;;;;;;;15.40;2.38;;;11.30;58.70;;;;;;5190196;27;34197;-77
2021/12/28 00:45:50;;;;;;;12.50;1.92;;;11.30;58.60;;;;;;5189984;27;34430;-77
2021/12/28 00:48:17;;;;;;;15.40;2.65;;;11.30;58.40;;;;;;5189432;27;34205;-77
2021/12/28 00:50:44;;;;;;;12.55;2.10;;;11.30;58.60;;;;;;5208735;27;34135;-77
2021/12/28 00:53:11;;;;;;;8.60;2.03;;;11.20;58.50;;;;;;5207013;27;34178;-77
2021/12/28 00:55:37;;;;;;;12.43;2.63;;;11.30;58.70;;;;;;5189094;27;34250;-76
2021/12/28 00:58:04;;;;;;;10.93;2.05;;;11.30;58.60;;;;;;5208356;27;34288;-76
2021/12/28 01:00:34;;;;;;;12.13;2.35;;;11.30;58.30;;;;;;5208909;27;34232;-77
2021/12/28 01:03:02;;;;;;;9.52;2.20;;;11.30;58.60;;;;;;5171535;27;35533;-76
2021/12/28 01:05:29;;;;;;;14.45;2.05;;;11.30;58.60;;;;;;5170917;27;34264;-77
2021/12/28 01:07:56;;;;;;;13.88;2.20;;;11.30;58.50;;;;;;5190171;27;34358;-76
2021/12/28 01:10:28;;;;;;;10.75;2.22;;;11.30;58.60;;;;;;5192276;27;34526;-76
2021/12/28 01:12:55;;;;;;;9.20;2.60;;;11.30;58.40;;;;;;5210613;27;34443;-76
2021/12/28 01:15:23;;;;;;;6.75;1.90;;;11.20;58.40;;;;;;5193361;27;34427;-76
2021/12/28 01:17:50;;;;;;;12.32;2.25;;;11.20;58.40;;;;;;5174711;27;34480;-76
2021/12/28 01:20:16;;;;;;;8.45;1.83;;;11.20;58.40;;;;;;5191844;27;34370;-77
2021/12/28 01:22:44;;;;;;;7.80;2.22;;;11.20;58.50;;;;;;5174090;27;35688;-77
2021/12/28 01:25:12;;;;;;;4.95;1.80;;;11.20;58.50;;;;;;5174152;27;34103;-77
2021/12/28 01:27:38;;;;;;;8.02;1.45;;;11.10;58.60;;;;;;5210238;27;34262;-77
2021/12/28 01:30:08;;;;;;;5.70;1.73;;;11.10;58.80;;;;;;5191580;27;34217;-77
2021/12/28 01:32:34;;;;;;;9.82;1.90;;;11.00;58.70;;;;;;5174749;27;35930;-77
2021/12/28 01:35:00;;;;;;;10.85;2.10;;;11.00;58.80;;;;;;5191439;27;34238;-76
2021/12/28 01:37:27;;;;;;;6.50;1.70;;;11.00;58.90;;;;;;5210749;27;34421;-76
2021/12/28 01:39:53;;;;;;;6.25;1.67;;;10.90;58.90;;;;;;5176888;27;34584;-76
2021/12/28 01:42:19;;;;;;;9.85;1.75;;;11.00;58.90;;;;;;5170605;27;36985;-76
2021/12/28 01:44:45;;;;;;;9.05;1.98;;;10.90;59.00;;;;;;5170283;27;34451;-76
2021/12/28 01:47:13;;;;;;;6.30;1.50;;;10.90;59.00;;;;;;5170655;27;34209;-77
2021/12/28 01:49:39;;;;;;;8.77;1.75;;;10.90;59.00;;;;;;5189249;27;34206;-77
2021/12/28 01:52:05;;;;;;;8.57;1.92;;;10.80;59.00;;;;;;5171438;27;34257;-77
2021/12/28 01:54:31;;;;;;;7.93;1.90;;;10.80;59.00;;;;;;5152814;27;34211;-77
2021/12/28 01:56:57;;;;;;;5.93;1.88;;;10.80;59.10;;;;;;5170180;27;34234;-77
2021/12/28 01:59:24;;;;;;;7.78;1.52;;;10.80;59.00;;;;;;5170528;27;34377;-76
2021/12/28 02:01:51;;;;;;;7.53;1.30;;;10.80;59.10;;;;;;5169394;27;35701;-77
2021/12/28 02:04:22;;;;;;;6.32;1.83;;;10.80;59.20;;;;;;5170164;27;34149;-77
2021/12/28 02:06:50;;;;;;;7.10;1.73;;;10.80;59.20;;;;;;5170036;27;34516;-77
2021/12/28 02:09:17;;;;;;;3.95;1.33;;;10.70;59.20;;;;;;5152517;27;34370;-76
2021/12/28 02:11:44;;;;;;;6.55;1.67;;;10.70;59.20;;;;;;5152433;27;36076;-77
2021/12/28 02:14:10;;;;;;;3.30;1.27;;;10.60;59.20;;;;;;5188319;27;34302;-76
2021/12/28 02:16:39;;;;;;;6.43;1.75;;;10.60;59.20;;;;;;5169250;27;34218;-76
2021/12/28 02:19:07;;;;;;;6.40;1.42;;;10.60;59.20;;;;;;5169906;27;34615;-76
2021/12/28 02:21:34;;;;;;;3.75;1.40;;;10.60;59.30;;;;;;5169724;27;35275;-76
2021/12/28 02:24:03;;;;;;;6.30;1.42;;;10.60;59.30;;;;;;5169479;27;34280;-76
2021/12/28 02:26:30;;;;;;;5.68;1.75;;;10.50;59.20;;;;;;5170010;27;34323;-76
2021/12/28 02:28:57;;;;;;;2.92;1.38;;;10.50;59.30;;;;;;5152598;27;34698;-77
2021/12/28 02:31:24;;;;;;;5.85;1.52;;;10.50;59.40;;;;;;5169192;27;34403;-77
2021/12/28 02:33:51;;;;;;;5.10;1.70;;;10.50;59.30;;;;;;5188575;27;34371;-76
2021/12/28 02:36:18;;;;;;;2.05;1.02;;;10.50;59.40;;;;;;5188507;27;34204;-77
2021/12/28 02:38:46;;;;;;;5.97;1.33;;;10.50;59.40;;;;;;5135087;27;34399;-77
2021/12/28 02:41:12;;;;;;;2.70;1.08;;;10.50;59.40;;;;;;5169703;27;35729;-77
2021/12/28 02:43:40;;;;;;;5.72;1.20;;;10.50;59.40;;;;;;5163821;27;34086;-77
2021/12/28 02:46:08;;;;;;;4.00;1.52;;;10.50;59.30;;;;;;5139799;27;34336;-77
2021/12/28 02:48:37;;;;;;;2.95;1.00;;;10.50;59.30;;;;;;5149901;27;34438;-77
2021/12/28 02:51:09;;;;;;;3.45;1.10;;;10.50;59.40;;;;;;5187832;27;35070;-77
2021/12/28 02:53:35;;;;;;;6.38;2.25;;;10.50;59.40;;;;;;5152741;27;34267;-76
2021/12/28 02:56:02;;;;;;;3.40;1.17;;;10.40;59.30;;;;;;5188255;27;34219;-77
2021/12/28 02:58:32;;;;;;;5.00;1.40;;;10.50;59.40;;;;;;5152004;27;34586;-76
2021/12/28 03:01:05;;;;;;;2.78;0.90;;;10.50;59.50;;;;;;5151791;27;36575;-76
2021/12/28 03:03:33;;;;;;;2.45;1.10;;;10.40;59.60;;;;;;5168669;27;34329;-76
2021/12/28 03:06:00;;;;;;;3.03;1.08;;;10.40;59.40;;;;;;5188015;27;34270;-77
2021/12/28 03:08:29;;;;;;;4.13;1.30;;;10.40;59.40;;;;;;5187439;27;34162;-77
2021/12/28 03:10:57;;;;;;;2.67;0.88;;;10.40;59.50;;;;;;5134214;27;36796;-77
2021/12/28 03:13:27;;;;;;;8.18;1.25;;;10.40;59.50;;;;;;5187442;27;34409;-76
2021/12/28 03:15:53;;;;;;;2.70;1.15;;;10.40;59.50;;;;;;5168652;27;34361;-77
2021/12/28 03:18:20;;;;;;;2.25;1.00;;;10.40;59.50;;;;;;5168432;27;34217;-77
2021/12/28 03:20:47;;;;;;;3.67;1.00;;;10.40;59.50;;;;;;5167650;27;36693;-77
2021/12/28 03:23:16;;;;;;;1.65;0.95;;;10.40;59.50;;;;;;5187591;27;34260;-77
2021/12/28 03:25:42;;;;;;;3.10;0.98;;;10.40;59.60;;;;;;5168546;27;34179;-77
2021/12/28 03:28:14;;;;;;;1.95;1.00;;;10.40;59.60;;;;;;5168871;27;34142;-77
2021/12/28 03:30:40;;;;;;;1.48;0.88;;;10.40;59.50;;;;;;5151808;27;35824;-77
2021/12/28 03:33:06;;;;;;;2.17;1.00;;;10.40;59.60;;;;;;5151042;27;34401;-76
2021/12/28 03:35:32;;;;;;;0.63;0.60;;;10.30;59.60;;;;;;5168823;27;34261;-76
2021/12/28 03:37:58;;;;;;;4.55;1.05;;;10.30;59.60;;;;;;5169490;27;34351;-77
2021/12/28 03:40:24;;;;;;;3.90;0.98;;;10.40;59.70;;;;;;5168102;27;35688;-77
2021/12/28 03:42:50;;;;;;;2.50;0.82;;;10.40;59.60;;;;;;5150342;27;34186;-77
2021/12/28 03:45:16;;;;;;;1.95;0.68;;;10.40;59.60;;;;;;5150957;27;34272;-76
2021/12/28 03:47:43;;;;;;;1.83;0.90;;;10.40;59.60;;;;;;5187482;27;34542;-76
2021/12/28 03:50:10;;;;;;;0.85;0.45;;;10.40;59.60;;;;;;5186977;27;34508;-76
2021/12/28 03:52:37;;;;;;;1.23;0.70;;;10.40;59.50;;;;;;5150720;27;34201;-76
2021/12/28 03:55:05;;;;;;;2.85;0.80;;;10.40;59.60;;;;;;5168155;27;34103;-77
2021/12/28 03:57:32;;;;;;;2.00;0.60;;;10.40;59.50;;;;;;5150598;27;34549;-76
2021/12/28 03:59:58;;;;;;;1.90;0.85;;;10.40;59.50;;;;;;5186629;27;34330;-76
2021/12/28 04:02:24;;;;;;;0.82;0.68;;;10.40;59.50;;;;;;5168467;27;34160;-76
2021/12/28 04:04:50;;;;;;;1.42;0.68;;;10.40;59.50;;;;;;5168991;27;34737;-76
2021/12/28 04:07:20;;;;;;;2.92;0.70;;;10.50;59.60;;;;;;5165327;27;34488;-76
2021/12/28 04:10:01;;;;;;;2.17;0.82;;;10.40;59.40;;;;;;5149501;27;36272;-76
2021/12/28 04:12:29;;;;;;;1.17;0.80;;;10.50;59.60;;;;;;5168350;27;34205;-76
2021/12/28 04:14:56;;;;;;;3.55;0.70;;;10.40;59.50;;;;;;5168487;27;34160;-76
2021/12/28 04:17:23;;;;;;;2.15;1.00;;;10.40;59.50;;;;;;5150942;27;34501;-76
2021/12/28 04:19:49;;;;;;;0.80;0.70;;;10.40;59.50;;;;;;5167721;27;35948;-76
2021/12/28 04:22:16;;;;;;;1.90;0.57;;;10.40;59.40;;;;;;5186370;27;34171;-76
2021/12/28 04:24:42;;;;;;;2.35;0.82;;;10.40;59.90;;;;;;5186176;27;34146;-76
2021/12/28 04:27:09;;;;;;;2.65;0.77;;;10.40;59.50;;;;;;5168758;27;34170;-76
2021/12/28 04:29:35;;;;;;;1.20;0.55;;;10.40;59.50;;;;;;5186025;27;35339;-76
2021/12/28 04:32:02;;;;;;;1.27;0.90;;;10.40;59.60;;;;;;5167866;27;34297;-76
2021/12/28 04:34:28;;;;;;;1.48;0.50;;;10.40;59.50;;;;;;5167616;27;34365;-76
2021/12/28 04:36:54;;;;;;;2.63;0.60;;;10.30;59.50;;;;;;5186521;27;34387;-76
2021/12/28 04:39:20;;;;;;;1.17;0.50;;;10.40;59.50;;;;;;5176620;27;36749;-76
2021/12/28 04:41:46;;;;;;;1.67;0.77;;;10.40;59.50;;;;;;5207020;27;34189;-76
2021/12/28 04:44:13;;;;;;;3.13;0.60;;;10.40;59.50;;;;;;5190815;27;34460;-76
2021/12/28 04:46:40;;;;;;;0.63;0.60;;;10.40;59.50;;;;;;5211197;27;34076;-77
2021/12/28 04:49:06;;;;;;;3.20;0.75;;;10.40;59.50;;;;;;5174606;27;36060;-76
2021/12/28 04:51:32;;;;;;;1.00;0.60;;;10.40;59.40;;;;;;5144558;27;34258;-76
2021/12/28 04:54:01;;;;;;;0.93;0.60;;;10.40;59.50;;;;;;5148743;27;34161;-76
2021/12/28 04:56:27;;;;;;;1.77;0.60;;;10.40;59.50;;;;;;5174328;27;34495;-77
2021/12/28 04:58:53;;;;;;;2.70;0.60;;;10.40;59.40;;;;;;5191909;27;35580;-76
2021/12/28 05:01:19;;;;;;;1.25;0.50;;;10.30;59.50;;;;;;5210892;27;34265;-76
2021/12/28 05:03:45;;;;;;;1.48;0.70;;;10.30;59.60;;;;;;5174216;27;34275;-77
2021/12/28 05:06:11;;;;;;;1.42;0.57;;;10.20;59.50;;;;;;5210830;27;34440;-76
2021/12/28 05:08:41;;;;;;;3.05;0.70;;;10.20;59.50;;;;;;5191329;27;35797;-76
2021/12/28 05:11:07;;;;;;;1.58;0.80;;;10.20;59.60;;;;;;5191757;27;34112;-76
2021/12/28 05:13:33;;;;;;;1.40;0.60;;;10.20;59.60;;;;;;5191622;27;34101;-77
2021/12/28 05:15:59;;;;;;;0.43;0.43;;;10.20;59.60;;;;;;5174981;27;34135;-76
2021/12/28 05:18:25;;;;;;;2.72;0.70;;;10.20;59.60;;;;;;5174336;27;35675;-76
2021/12/28 05:20:51;;;;;;;0.80;0.60;;;10.20;59.60;;;;;;5191736;27;34155;-76
2021/12/28 05:23:17;;;;;;;5.65;0.80;;;10.20;59.60;;;;;;5191410;27;34261;-76
2021/12/28 05:25:44;;;;;;;0.80;0.52;;;10.10;59.60;;;;;;5191831;27;34480;-76
2021/12/28 05:28:10;;;;;;;0.73;0.60;;;10.10;59.60;;;;;;5210370;27;34319;-76
2021/12/28 05:30:36;;;;;;;0.50;0.50;;;10.10;59.60;;;;;;5210533;27;34342;-76
2021/12/28 05:33:03;;;;;;;1.30;0.60;;;10.00;59.50;;;;;;5192407;27;34172;-76
2021/12/28 05:35:29;;;;;;;2.53;0.55;;;10.00;59.50;;;;;;5174742;27;34101;-76
2021/12/28 05:37:56;;;;;;;1.52;0.50;;;10.00;59.60;;;;;;5174462;27;35653;-76
2021/12/28 05:40:22;;;;;;;2.08;0.40;;;9.90;59.60;;;;;;5172780;27;34168;-76
2021/12/28 05:42:49;;;;;;;0.85;0.50;;;9.90;59.70;;;;;;5171140;27;34385;-76
2021/12/28 05:45:15;;;;;;;1.17;0.52;;;9.90;59.70;;;;;;5153660;27;34460;-76
2021/12/28 05:47:41;;;;;;;1.38;0.70;;;9.90;59.70;;;;;;5171176;27;34530;-76
2021/12/28 05:50:09;;;;;;;0.40;0.40;;;9.90;59.70;;;;;;5171769;27;34529;-76
2021/12/28 05:52:35;;;;;;;2.72;0.50;;;9.80;59.70;;;;;;5170546;27;34253;-77
2021/12/28 05:55:02;;;;;;;0.40;0.40;;;9.80;59.70;;;;;;5169167;27;34161;-77
2021/12/28 05:57:28;;;;;;;0.75;0.43;;;9.80;59.70;;;;;;5170586;27;35606;-77
2021/12/28 05:59:54;;;;;;;0.70;0.40;;;9.80;59.70;;;;;;5153429;27;34140;-76
2021/12/28 06:02:20;;;;;;;0.30;0.30;;;9.80;59.70;;;;;;5170541;27;34227;-76
2021/12/28 06:04:46;;;;;;;0.40;0.40;;;9.80;59.80;;;;;;5170890;27;34161;-76
2021/12/28 06:07:12;;;;;;;0.65;0.40;;;9.70;59.90;;;;;;5153062;27;37012;-77
2021/12/28 06:09:38;;;;;;;1.20;0.43;;;9.70;59.90;;;;;;5170861;27;34191;-77
2021/12/28 06:12:06;;;;;;;0.60;0.55;;;9.70;59.90;;;;;;5170542;27;34234;-77
2021/12/28 06:14:33;;;;;;;2.30;0.55;;;9.70;59.90;;;;;;5123279;27;34276;-77
2021/12/28 06:16:59;;;;;;;1.55;0.50;;;9.70;60.60;;;;;;5170126;27;36091;-77
2021/12/28 06:19:25;;;;;;;0.63;0.60;;;9.80;59.80;;;;;;5169682;27;34333;-77
2021/12/28 06:21:51;;;;;;;0.40;0.40;;;9.80;59.70;;;;;;5170040;27;34495;-77
2021/12/28 06:24:17;;;;;;;0.75;0.60;;;9.80;59.70;;;;;;5169652;27;34133;-77
2021/12/28 06:26:44;;;;;;;0.55;0.55;;;9.80;59.70;;;;;;5160306;27;35893;-77
2021/12/28 06:29:11;;;;;;;0.52;0.52;;;9.80;59.80;;;;;;5127553;27;34082;-77
2021/12/28 06:31:37;;;;;;;0.40;0.40;;;9.80;59.90;;;;;;5154773;27;34114;-77
2021/12/28 06:34:06;;;;;;;1.95;0.60;;;9.80;59.80;;;;;;5170010;27;34495;-77
2021/12/28 06:36:32;;;;;;;0.68;0.68;;;9.70;59.80;;;;;;5152139;27;36319;-77
2021/12/28 06:38:59;;;;;;;0.93;0.57;;;9.70;59.90;;;;;;5194271;27;34224;-77
2021/12/28 06:41:25;;;;;;;0.63;0.50;;;9.70;59.80;;;;;;5172736;27;34333;-77
2021/12/28 06:43:51;;;;;;;0.40;0.40;;;9.70;59.80;;;;;;5189932;27;34567;-76
2021/12/28 06:46:18;;;;;;;3.17;0.47;;;9.70;59.80;;;;;;5209010;27;34762;-77
2021/12/28 06:48:44;;;;;;;0.60;0.45;;;9.70;59.80;;;;;;5189819;27;34520;-77
2021/12/28 06:51:11;;;;;;;0.50;0.40;;;9.80;60.60;;;;;;5208630;27;34350;-77
2021/12/28 06:53:38;;;;;;;2.65;0.60;;;9.70;59.80;;;;;;5189310;27;34412;-77
2021/12/28 06:56:05;;;;;;;0.73;0.68;;;9.70;59.80;;;;;;5208797;27;34233;-77
2021/12/28 06:58:31;;;;;;;0.60;0.60;;;9.70;59.80;;;;;;5190378;27;34194;-77
2021/12/28 07:00:58;;;;;;;0.85;0.50;;;9.70;59.80;;;;;;5172598;27;34268;-77
2021/12/28 07:03:24;;;;;;;2.83;0.60;;;9.70;59.80;;;;;;5163248;27;34373;-77
2021/12/28 07:05:50;;;;;;;0.40;0.40;;;9.70;59.80;;;;;;5183579;27;36364;-77
2021/12/28 07:08:16;;;;;;;0.73;0.73;;;9.70;59.80;;;;;;5170446;27;34408;-77
2021/12/28 07:10:43;;;;;;;1.60;0.80;;;9.70;59.80;;;;;;5175545;27;34386;-76
2021/12/28 07:13:09;;;;;;;1.05;0.60;;;9.70;59.90;;;;;;5172483;27;34312;-77
2021/12/28 07:15:35;;;;;;;0.50;0.50;;;9.70;59.90;;;;;;5208085;27;35073;-77
2021/12/28 07:18:02;;;;;;;0.60;0.60;;;9.70;59.80;;;;;;5189471;27;34210;-77
2021/12/28 07:20:28;;;;;;;1.13;0.75;;;9.70;59.80;;;;;;5154605;27;34382;-77
2021/12/28 07:22:54;;;;;;;1.90;0.80;;;9.70;59.80;;;;;;5189895;27;34097;-77
2021/12/28 07:25:21;;;;;;;0.60;0.60;;;9.70;59.80;;;;;;5189647;27;35426;-77
2021/12/28 07:27:47;;;;;;;1.88;0.65;;;9.70;59.80;;;;;;5189588;27;34194;-77
2021/12/28 07:30:13;;;;;;;1.27;0.60;;;9.80;59.80;;;;;;5189492;27;34318;-77
2021/12/28 07:32:40;;;;;;;0.50;0.50;;;9.80;59.80;;;;;;5189247;27;34402;-77
2021/12/28 07:35:08;;;;;;;1.08;0.73;;;9.80;59.80;;;;;;5188753;27;36300;-77
2021/12/28 07:37:35;;;;;;;0.60;0.60;;;9.80;59.80;;;;;;5189376;27;34397;-76
2021/12/28 07:40:01;;;;;;;1.27;0.80;;;9.80;59.90;;;;;;5173675;27;34199;-77
2021/12/28 07:42:45;;;;;;;1.48;0.70;;;9.80;59.90;;;;;;5168332;27;34391;-77
2021/12/28 07:45:13;;;;;;;1.10;1.00;;;9.70;59.80;;;;;;5167919;27;35826;-77
2021/12/28 07:47:40;;;;;;;0.70;0.70;;;9.70;59.90;;;;;;5168346;27;34232;-77
2021/12/28 07:50:08;;;;;;;0.65;0.65;;;9.70;59.90;;;;;;5186735;27;34244;-77
2021/12/28 07:52:35;;;;;;;0.98;0.80;;;9.70;59.90;;;;;;5167861;27;34181;-77
2021/12/28 07:55:03;;;;;;;2.58;1.00;;;9.70;59.90;;;;;;5167710;27;36704;-77
2021/12/28 07:57:30;;;;;;;2.60;1.00;;;9.80;60.00;;;;;;5166225;27;34328;-78
2021/12/28 07:59:57;;;;;;;2.50;1.02;;;9.80;60.00;;;;;;5186509;27;34267;-77
2021/12/28 08:02:23;;;;;;;2.25;1.55;;;9.80;59.90;;;;;;5147777;27;34132;-77
2021/12/28 08:04:49;;;;;;;1.38;1.20;;;9.80;60.00;;;;;;5185165;27;34536;-77
2021/12/28 08:07:15;;;;;;;2.65;1.30;;;9.80;59.90;;;;;;5167800;27;34262;-76
2021/12/28 08:09:41;;;;;;;5.50;1.20;;;9.80;59.90;;;;;;5186448;27;34268;-77
2021/12/28 08:12:08;;;;;;;3.38;1.75;;;9.80;59.90;;;;;;5167913;27;34189;-76
2021/12/28 08:14:34;;;;;;;1.85;1.42;;;9.90;60.10;;;;;;5167664;27;35814;-77
2021/12/28 08:17:00;;;;;;;3.10;1.70;;;9.90;60.00;;;;;;5149729;27;34192;-77
2021/12/28 08:19:26;;;;;;;1.70;1.60;;;9.90;60.00;;;;;;5185810;27;34292;-77
2021/12/28 08:21:52;;;;;;;2.13;1.80;;;9.90;60.90;;;;;;5185747;27;34273;-76
2021/12/28 08:24:18;;;;;;;2.42;1.73;;;9.90;60.10;;;;;;5167271;27;36338;-77
2021/12/28 08:26:45;;;;;;;3.15;2.03;;;9.90;60.10;;;;;;5167533;27;34253;-76
2021/12/28 08:31:55;;;;;;;3.80;2.15;;;10.00;60.00;;;;;;5186075;27;34102;-76
2021/12/28 08:34:21;;;;;;;2.33;1.77;;;10.00;60.10;;;;;;5186030;27;35348;-77
2021/12/28 08:36:47;;;;;;;3.30;2.13;;;10.00;60.00;;;;;;5166873;27;34479;-77
2021/12/28 08:39:14;;;;;;;3.78;1.90;;;10.10;60.10;;;;;;5176316;27;34190;-76
2021/12/28 08:41:40;;;;;;;3.45;2.35;;;10.10;60.10;;;;;;5188812;27;34318;-77
2021/12/28 08:44:06;;;;;;;4.30;2.20;;;10.10;60.10;;;;;;5187789;27;36521;-77
2021/12/28 08:46:32;;;;;;;3.38;2.10;;;10.10;60.10;;;;;;5207409;27;34306;-77
2021/12/28 08:48:58;;;;;;;2.40;2.17;;;10.20;60.10;;;;;;5144997;27;34315;-77
2021/12/28 08:51:25;;;;;;;2.65;2.08;;;10.20;60.10;;;;;;5171429;27;34477;-76
2021/12/28 08:53:51;;;;;;;3.70;1.77;;;10.30;60.20;;;;;;5187784;27;35810;-77
2021/12/28 08:56:17;;;;;;;2.53;1.80;;;10.30;60.20;;;;;;5170737;27;34112;-77
2021/12/28 08:58:43;;;;;;;3.85;2.20;;;10.30;60.20;;;;;;5206783;27;34150;-77
2021/12/28 09:01:09;;;;;;;1.92;1.77;;;10.40;60.20;;;;;;5188941;27;34262;-77
2021/12/28 09:03:35;;;;;;;2.10;1.90;;;10.40;60.20;;;;;;5189653;27;34393;-77
2021/12/28 09:06:02;;;;;;;1.98;1.73;;;10.40;60.20;;;;;;5189690;27;34239;-77
2021/12/28 09:08:29;;;;;;;3.25;2.00;;;10.50;60.40;;;;;;5189818;27;34386;-77
2021/12/28 09:10:55;;;;;;;2.60;1.90;;;10.50;60.40;;;;;;5173103;27;34167;-77
2021/12/28 09:13:21;;;;;;;3.83;2.20;;;10.60;60.30;;;;;;5190227;27;36228;-77
2021/12/28 09:15:47;;;;;;;2.40;2.20;;;10.70;60.40;;;;;;5189502;27;33857;-77
2021/12/28 09:18:13;;;;;;;1.95;1.85;;;10.70;60.40;;;;;;5189338;27;34392;-77
2021/12/28 09:20:39;;;;;;;1.92;1.70;;;10.80;60.40;;;;;;5189374;27;34203;-76
2021/12/28 09:23:08;;;;;;;1.00;0.68;;;10.80;60.40;;;;;;5188897;27;36333;-76
2021/12/28 09:25:34;;;;;;;1.52;0.60;;;10.90;60.40;;;;;;5171334;27;34354;-76
2021/12/28 09:28:00;;;;;;;0.55;0.55;;;10.90;60.40;;;;;;5189137;27;34335;-76
2021/12/28 09:30:27;;;;;;;0.65;0.65;;;10.90;60.50;;;;;;5192213;27;34322;-76
2021/12/28 09:32:53;;;;;;;0.63;0.60;;;11.00;60.50;;;;;;5191957;27;35828;-76
2021/12/28 09:35:20;;;;;;;0.60;0.60;;;11.00;60.50;;;;;;5192718;27;34647;-76
2021/12/28 09:37:46;;;;;;;0.77;0.70;;;11.00;60.40;;;;;;5192947;27;34189;-76
2021/12/28 09:40:13;;;;;;;0.70;0.60;;;11.10;60.60;;;;;;5211244;27;34096;-76
2021/12/28 09:42:41;;;;;;;0.70;0.70;;;11.10;60.50;;;;;;5188734;27;35959;-76
2021/12/28 09:45:10;;;;;;;2.25;0.88;;;11.20;60.40;;;;;;5182193;27;34376;-78
2021/12/28 09:47:37;;;;;;;0.60;0.60;;;11.20;60.40;;;;;;5156117;27;34173;-78
2021/12/28 09:50:06;;;;;;;0.82;0.60;;;11.30;60.50;;;;;;5172381;27;34103;-77
2021/12/28 09:52:32;;;;;;;4.13;0.60;;;11.30;60.50;;;;;;5203196;27;34243;-77
2021/12/28 09:54:59;;;;;;;0.65;0.65;;;11.40;60.50;;;;;;5182207;27;34268;-78
2021/12/28 09:57:25;;;;;;;0.52;0.52;;;11.40;60.50;;;;;;5172351;27;34163;-76
2021/12/28 09:59:51;;;;;;;0.95;0.77;;;11.50;60.70;;;;;;5163347;27;34236;-76
2021/12/28 10:02:17;;;;;;;1.20;0.75;;;11.60;60.60;;;;;;5170627;27;36307;-77
2021/12/28 10:05:04;;;;;;;0.88;0.60;;;11.60;60.50;;;;;;5170573;27;34790;-77
2021/12/28 10:07:33;;;;;;;0.63;0.25;;;11.60;60.70;;;;;;5170302;27;34286;-77
2021/12/28 10:09:59;;;;;;;1.88;0.52;;;11.60;60.40;;;;;;5171035;27;34304;-77
2021/12/28 10:12:30;;;;;;;0.22;0.22;;;11.60;60.40;;;;;;5169849;27;36293;-77
2021/12/28 10:15:00;;;;;;;0.28;0.28;;;11.70;60.70;;;;;;5170404;27;34224;-77
2021/12/28 10:17:30;;;;;;;0.45;0.40;;;11.70;60.70;;;;;;5189140;27;34233;-77
2021/12/28 10:19:58;;;;;;;0.30;0.30;;;11.70;60.70;;;;;;5169718;27;34367;-77
2021/12/28 10:22:47;;;;;;;1.58;0.40;;;11.80;60.60;;;;;;5188777;27;34393;-77
2021/12/28 10:25:19;;;;;;;0.50;0.30;;;11.80;60.40;;;;;;5154330;27;34425;-77
2021/12/28 10:27:48;;;;;;;0.60;0.40;;;11.90;60.50;;;;;;5169688;27;34244;-77
2021/12/28 10:30:31;;;;;;;1.08;0.20;;;11.90;60.50;;;;;;5169820;27;34283;-77
2021/12/28 10:33:00;;;;;;;0.93;0.30;;;12.00;60.40;;;;;;5160412;27;36056;-77
2021/12/28 10:35:30;;;;;;;0.30;0.30;;;12.00;60.30;;;;;;5169151;27;34407;-77
2021/12/28 10:38:01;;;;;;;0.28;0.28;;;12.00;60.10;;;;;;5169816;27;34364;-77
2021/12/28 10:40:32;;;;;;;0.45;0.38;;;12.10;60.20;;;;;;5150895;27;34423;-77
2021/12/28 10:43:04;;;;;;;1.88;0.30;;;12.10;60.10;;;;;;5168553;27;35451;-77
2021/12/28 10:45:37;;;;;;;1.52;0.30;;;12.20;60.00;;;;;;5169102;27;34104;-77
2021/12/28 10:48:07;;;;;;;0.38;0.30;;;12.20;60.00;;;;;;5133408;27;34255;-77
2021/12/28 10:50:38;;;;;;;0.43;0.30;;;12.20;60.00;;;;;;5168688;27;34082;-77
2021/12/28 10:53:13;;;;;;;1.67;0.40;;;12.20;60.00;;;;;;5148318;27;35191;-77
2021/12/28 10:55:42;;;;;;;1.00;0.43;;;12.20;60.30;;;;;;5142854;27;34119;-77
2021/12/28 10:58:11;;;;;;;1.65;0.45;;;12.20;60.10;;;;;;5151301;27;34221;-77
2021/12/28 11:00:43;;;;;;;0.63;0.40;;;12.20;60.30;;;;;;5186398;27;34485;-77
2021/12/28 11:03:29;;;;;;;1.25;0.17;;;12.30;60.10;;;;;;5168934;27;34165;-77
2021/12/28 11:05:57;;;;;;;1.45;0.30;;;12.30;59.80;;;;;;5187700;27;34266;-77
2021/12/28 11:08:25;;;;;;;0.93;0.40;;;12.30;59.80;;;;;;5187368;27;34365;-77
2021/12/28 11:10:56;;;;;;;1.10;0.20;;;12.30;59.80;;;;;;5150873;27;34253;-77
2021/12/28 11:13:25;;;;;;;0.70;0.30;;;12.40;59.80;;;;;;5168961;27;34934;-77
2021/12/28 11:15:51;;;;;;;0.65;0.30;;;12.40;59.80;;;;;;5168902;27;34305;-77
2021/12/28 11:18:30;;;;;;;1.40;0.30;;;12.40;59.80;;;;;;5169685;27;34176;-77
2021/12/28 11:20:59;;;;;;;1.48;0.32;;;12.40;59.90;;;;;;5153265;27;34234;-77
2021/12/28 11:23:29;;;;;;;2.03;0.30;;;12.30;60.00;;;;;;5168850;27;35690;-77
2021/12/28 11:26:03;;;;;;;0.63;0.40;;;12.30;60.10;;;;;;5187430;27;34217;-77
2021/12/28 11:28:31;;;;;;;0.20;0.20;;;12.30;60.20;;;;;;5187790;27;34387;-77
2021/12/28 11:31:16;;;;;;;0.47;0.28;;;12.30;60.10;;;;;;5169311;27;34578;-77
2021/12/28 11:33:50;;;;;;;0.20;0.20;;;12.30;59.70;;;;;;5151103;27;36292;-77
2021/12/28 11:36:19;;;;;;;0.77;0.30;;;12.20;59.70;;;;;;5168975;27;34283;-77
2021/12/28 11:38:46;;;;;;;1.73;0.30;;;12.30;59.90;;;;;;5148052;27;34177;-77
2021/12/28 11:41:12;;;;;;;0.43;0.40;;;12.20;59.80;;;;;;5184506;27;34315;-78
2021/12/28 11:43:40;;;;;;;1.15;0.50;;;12.20;59.90;;;;;;5182032;27;35853;-77
2021/12/28 11:46:07;;;;;;;1.50;0.40;;;12.20;59.90;;;;;;5182472;27;34342;-78
2021/12/28 11:48:35;;;;;;;0.82;0.50;;;12.20;59.90;;;;;;5181339;27;34555;-77
2021/12/28 11:51:01;;;;;;;2.20;0.38;;;12.20;59.80;;;;;;5164221;27;34264;-77
2021/12/28 11:53:28;;;;;;;1.25;0.70;;;12.20;59.70;;;;;;5140397;27;34851;-77
2021/12/28 11:55:57;;;;;;;0.95;0.50;;;12.20;59.70;;;;;;5182491;27;34243;-76
2021/12/28 11:58:54;;;;;;;2.17;0.70;;;12.20;59.10;;;;;;5165851;27;34277;-78
2021/12/28 12:01:55;;;;;;;4.22;0.60;;;12.10;58.40;;;;;;5182733;27;34312;-77
2021/12/28 12:04:46;;;;;;;2.97;0.90;;;12.10;58.30;;;;;;5182892;27;35729;-77
2021/12/28 12:07:26;;;;;;;2.95;0.95;;;12.10;58.60;;;;;;5182495;27;34155;-77
2021/12/28 12:10:05;;;;;;;3.63;0.60;;;12.10;58.80;;;;;;5183388;27;34092;-79
2021/12/28 12:12:44;;;;;;;4.60;1.10;;;12.00;58.60;;;;;;5182752;27;34163;-77
2021/12/28 12:15:12;;;;;;;5.25;1.00;;;12.00;58.70;;;;;;5166376;27;34410;-78
2021/12/28 12:17:40;;;;;;;1.10;0.50;;;12.00;58.70;;;;;;5178911;27;34209;-78
2021/12/28 12:20:23;;;;;;;1.42;0.60;;;12.00;58.80;;;;;;5121350;27;34078;-77
2021/12/28 12:22:56;;;;;;;1.67;0.70;;;12.00;58.60;;;;;;5182988;27;34755;-78
2021/12/28 12:25:30;;;;;;;4.10;1.02;;;12.00;58.30;;;;;;5182556;27;35836;-78
2021/12/28 12:27:59;;;;;;;4.28;1.05;;;12.00;58.50;;;;;;5183777;27;34234;-77
2021/12/28 12:30:47;;;;;;;5.82;0.88;;;11.90;57.10;;;;;;5183017;27;34205;-79
2021/12/28 12:33:20;;;;;;;4.30;0.98;;;12.00;55.40;;;;;;5182031;27;34199;-78
2021/12/28 12:35:57;;;;;;;4.20;0.82;;;12.00;57.60;;;;;;5181927;27;35526;-78
2021/12/28 12:38:33;;;;;;;4.47;0.95;;;12.10;55.70;;;;;;5183699;27;34177;-78
2021/12/28 12:41:07;;;;;;;5.18;1.20;;;12.10;55.60;;;;;;5152503;27;34254;-78
2021/12/28 12:43:42;;;;;;;7.72;1.65;;;12.10;55.80;;;;;;5168596;27;34269;-78
2021/12/28 12:46:26;;;;;;;4.47;1.35;;;12.20;56.60;;;;;;5150757;27;36795;-78
2021/12/28 12:49:04;;;;;;;7.38;1.23;;;12.20;55.00;;;;;;5181095;27;34112;-78
2021/12/28 12:51:35;;;;;;;7.93;1.27;;;12.30;57.00;;;;;;5167565;27;34208;-78
2021/12/28 12:54:16;;;;;;;5.75;1.13;;;12.40;56.80;;;;;;5143526;27;34113;-78
2021/12/28 12:56:59;;;;;;;8.23;1.55;;;12.50;55.30;;;;;;5149876;27;35596;-78
2021/12/28 12:59:38;;;;;;;6.82;1.30;;;12.70;55.50;;;;;;5167922;27;34483;-78